sensor_id;sensor_type;location;lat;lon;timestamp;P1;durP1;ratioP1;P2;durP2;ratioP2
73911;SDS011;62248;49.958;8.448;2023-04-25T00:01:22;2.00;;;1.00;;
73911;SDS011;62248;49.958;8.448;2023-04-25T00:03:48;1.75;;;1.02;;
73911;SDS011;62248;49.958;8.448;2023-04-25T00:06:14;2.05;;;0.90;;
73911;SDS011;62248;49.958;8.448;2023-04-25T00:08:40;1.90;;;1.00;;
73911;SDS011;62248;49.958;8.448;2023-04-25T00:11:07;2.53;;;1.02;;
73911;SDS011;62248;49.958;8.448;2023-04-25T00:13:33;2.63;;;1.10;;
73911;SDS011;62248;49.958;8.448;2023-04-25T00:15:59;1.95;;;0.90;;
73911;SDS011;62248;49.958;8.448;2023-04-25T00:18:27;1.23;;;0.80;;
73911;SDS011;62248;49.958;8.448;2023-04-25T00:20:54;1.73;;;1.00;;
73911;SDS011;62248;49.958;8.448;2023-04-25T00:23:20;2.20;;;1.00;;
73911;SDS011;62248;49.958;8.448;2023-04-25T00:25:47;1.95;;;0.82;;
73911;SDS011;62248;49.958;8.448;2023-04-25T00:28:14;2.75;;;0.90;;
73911;SDS011;62248;49.958;8.448;2023-04-25T00:30:41;2.03;;;1.00;;
73911;SDS011;62248;49.958;8.448;2023-04-25T00:33:08;1.60;;;0.90;;
73911;SDS011;62248;49.958;8.448;2023-04-25T00:35:35;2.08;;;0.93;;
73911;SDS011;62248;49.958;8.448;2023-04-25T00:38:01;1.65;;;0.90;;
73911;SDS011;62248;49.958;8.448;2023-04-25T00:40:27;1.80;;;0.90;;
73911;SDS011;62248;49.958;8.448;2023-04-25T00:42:54;1.50;;;0.90;;
73911;SDS011;62248;49.958;8.448;2023-04-25T00:45:20;1.92;;;1.10;;
73911;SDS011;62248;49.958;8.448;2023-04-25T00:47:47;1.52;;;0.88;;
73911;SDS011;62248;49.958;8.448;2023-04-25T00:50:13;1.98;;;0.95;;
73911;SDS011;62248;49.958;8.448;2023-04-25T00:52:40;1.85;;;0.93;;
73911;SDS011;62248;49.958;8.448;2023-04-25T00:55:08;1.40;;;0.77;;
73911;SDS011;62248;49.958;8.448;2023-04-25T00:57:36;1.50;;;0.93;;
73911;SDS011;62248;49.958;8.448;2023-04-25T01:00:03;3.35;;;0.90;;
73911;SDS011;62248;49.958;8.448;2023-04-25T01:02:31;2.35;;;1.00;;
73911;SDS011;62248;49.958;8.448;2023-04-25T01:04:58;1.48;;;0.82;;
73911;SDS011;62248;49.958;8.448;2023-04-25T01:07:25;2.25;;;0.80;;
73911;SDS011;62248;49.958;8.448;2023-04-25T01:09:51;1.65;;;0.90;;
73911;SDS011;62248;49.958;8.448;2023-04-25T01:12:18;1.83;;;0.90;;
73911;SDS011;62248;49.958;8.448;2023-04-25T01:14:45;2.25;;;0.90;;
73911;SDS011;62248;49.958;8.448;2023-04-25T01:17:11;2.00;;;0.98;;
73911;SDS011;62248;49.958;8.448;2023-04-25T01:19:38;1.85;;;0.90;;
73911;SDS011;62248;49.958;8.448;2023-04-25T01:22:05;1.55;;;0.82;;
73911;SDS011;62248;49.958;8.448;2023-04-25T01:24:32;1.45;;;0.80;;
73911;SDS011;62248;49.958;8.448;2023-04-25T01:26:59;1.38;;;0.70;;
73911;SDS011;62248;49.958;8.448;2023-04-25T01:29:26;1.42;;;0.82;;
73911;SDS011;62248;49.958;8.448;2023-04-25T01:31:53;1.45;;;0.70;;
73911;SDS011;62248;49.958;8.448;2023-04-25T01:34:19;1.52;;;0.80;;
73911;SDS011;62248;49.958;8.448;2023-04-25T01:36:47;1.80;;;0.98;;
73911;SDS011;62248;49.958;8.448;2023-04-25T01:39:16;1.35;;;0.80;;
73911;SDS011;62248;49.958;8.448;2023-04-25T01:41:43;1.83;;;0.98;;
73911;SDS011;62248;49.958;8.448;2023-04-25T01:44:09;1.42;;;0.80;;
73911;SDS011;62248;49.958;8.448;2023-04-25T01:46:36;2.03;;;0.75;;
73911;SDS011;62248;49.958;8.448;2023-04-25T01:49:02;1.50;;;0.70;;
73911;SDS011;62248;49.958;8.448;2023-04-25T01:51:28;1.55;;;0.90;;
73911;SDS011;62248;49.958;8.448;2023-04-25T01:53:55;1.40;;;0.77;;
73911;SDS011;62248;49.958;8.448;2023-04-25T01:56:22;1.33;;;0.80;;
73911;SDS011;62248;49.958;8.448;2023-04-25T01:58:49;1.38;;;0.80;;
73911;SDS011;62248;49.958;8.448;2023-04-25T02:01:15;1.83;;;0.70;;
73911;SDS011;62248;49.958;8.448;2023-04-25T02:03:41;1.48;;;0.98;;
73911;SDS011;62248;49.958;8.448;2023-04-25T02:06:08;1.80;;;1.00;;
73911;SDS011;62248;49.958;8.448;2023-04-25T02:08:34;1.35;;;0.82;;
73911;SDS011;62248;49.958;8.448;2023-04-25T02:11:02;1.60;;;0.70;;
73911;SDS011;62248;49.958;8.448;2023-04-25T02:13:28;1.30;;;0.80;;
73911;SDS011;62248;49.958;8.448;2023-04-25T02:15:54;1.60;;;1.00;;
73911;SDS011;62248;49.958;8.448;2023-04-25T02:18:21;1.15;;;0.70;;
73911;SDS011;62248;49.958;8.448;2023-04-25T02:20:47;1.50;;;0.80;;
73911;SDS011;62248;49.958;8.448;2023-04-25T02:23:13;1.40;;;0.70;;
73911;SDS011;62248;49.958;8.448;2023-04-25T02:25:44;1.65;;;0.60;;
73911;SDS011;62248;49.958;8.448;2023-04-25T02:28:10;1.60;;;0.80;;
73911;SDS011;62248;49.958;8.448;2023-04-25T02:30:36;1.35;;;0.75;;
73911;SDS011;62248;49.958;8.448;2023-04-25T02:33:03;1.20;;;0.65;;
73911;SDS011;62248;49.958;8.448;2023-04-25T02:35:29;0.90;;;0.57;;
73911;SDS011;62248;49.958;8.448;2023-04-25T02:37:55;2.22;;;0.93;;
73911;SDS011;62248;49.958;8.448;2023-04-25T02:40:21;1.42;;;0.80;;
73911;SDS011;62248;49.958;8.448;2023-04-25T02:42:47;1.63;;;0.90;;
73911;SDS011;62248;49.958;8.448;2023-04-25T02:45:14;1.65;;;0.93;;
73911;SDS011;62248;49.958;8.448;2023-04-25T02:47:40;1.45;;;0.80;;
73911;SDS011;62248;49.958;8.448;2023-04-25T02:50:06;1.42;;;0.70;;
73911;SDS011;62248;49.958;8.448;2023-04-25T02:52:33;1.52;;;0.75;;
73911;SDS011;62248;49.958;8.448;2023-04-25T02:54:59;1.92;;;0.80;;
73911;SDS011;62248;49.958;8.448;2023-04-25T02:57:25;1.50;;;0.90;;
73911;SDS011;62248;49.958;8.448;2023-04-25T02:59:51;1.27;;;0.70;;
73911;SDS011;62248;49.958;8.448;2023-04-25T03:02:18;1.50;;;0.90;;
73911;SDS011;62248;49.958;8.448;2023-04-25T03:04:44;1.52;;;0.80;;
73911;SDS011;62248;49.958;8.448;2023-04-25T03:07:11;1.58;;;0.93;;
73911;SDS011;62248;49.958;8.448;2023-04-25T03:09:37;1.30;;;0.70;;
73911;SDS011;62248;49.958;8.448;2023-04-25T03:12:03;1.48;;;0.80;;
73911;SDS011;62248;49.958;8.448;2023-04-25T03:14:30;1.30;;;0.68;;
73911;SDS011;62248;49.958;8.448;2023-04-25T03:16:56;1.25;;;0.70;;
73911;SDS011;62248;49.958;8.448;2023-04-25T03:19:22;1.67;;;0.70;;
73911;SDS011;62248;49.958;8.448;2023-04-25T03:21:48;1.48;;;0.73;;
73911;SDS011;62248;49.958;8.448;2023-04-25T03:24:15;1.27;;;0.70;;
73911;SDS011;62248;49.958;8.448;2023-04-25T03:26:41;1.60;;;0.88;;
73911;SDS011;62248;49.958;8.448;2023-04-25T03:29:07;1.70;;;0.80;;
73911;SDS011;62248;49.958;8.448;2023-04-25T03:31:34;1.52;;;0.93;;
73911;SDS011;62248;49.958;8.448;2023-04-25T03:34:00;1.35;;;0.80;;
73911;SDS011;62248;49.958;8.448;2023-04-25T03:36:26;1.48;;;0.82;;
73911;SDS011;62248;49.958;8.448;2023-04-25T03:38:52;1.50;;;0.65;;
73911;SDS011;62248;49.958;8.448;2023-04-25T03:41:18;1.42;;;0.80;;
73911;SDS011;62248;49.958;8.448;2023-04-25T03:43:45;1.17;;;0.70;;
73911;SDS011;62248;49.958;8.448;2023-04-25T03:46:11;1.08;;;0.70;;
73911;SDS011;62248;49.958;8.448;2023-04-25T03:48:37;1.20;;;0.70;;
73911;SDS011;62248;49.958;8.448;2023-04-25T03:51:03;1.98;;;0.80;;
73911;SDS011;62248;49.958;8.448;2023-04-25T03:53:30;0.95;;;0.60;;
73911;SDS011;62248;49.958;8.448;2023-04-25T03:55:56;1.10;;;0.70;;
73911;SDS011;62248;49.958;8.448;2023-04-25T03:58:22;2.33;;;0.85;;
73911;SDS011;62248;49.958;8.448;2023-04-25T04:00:49;1.60;;;0.80;;
73911;SDS011;62248;49.958;8.448;2023-04-25T04:03:15;1.10;;;0.70;;
73911;SDS011;62248;49.958;8.448;2023-04-25T04:05:41;1.30;;;0.70;;
73911;SDS011;62248;49.958;8.448;2023-04-25T04:08:08;1.13;;;0.70;;
73911;SDS011;62248;49.958;8.448;2023-04-25T04:10:34;1.48;;;0.70;;
73911;SDS011;62248;49.958;8.448;2023-04-25T04:13:00;1.10;;;0.63;;
73911;SDS011;62248;49.958;8.448;2023-04-25T04:15:27;1.33;;;0.75;;
73911;SDS011;62248;49.958;8.448;2023-04-25T04:17:54;1.40;;;0.70;;
73911;SDS011;62248;49.958;8.448;2023-04-25T04:20:21;1.40;;;0.80;;
73911;SDS011;62248;49.958;8.448;2023-04-25T04:22:47;1.45;;;0.80;;
73911;SDS011;62248;49.958;8.448;2023-04-25T04:25:13;1.05;;;0.70;;
73911;SDS011;62248;49.958;8.448;2023-04-25T04:27:39;1.65;;;0.88;;
73911;SDS011;62248;49.958;8.448;2023-04-25T04:30:06;1.08;;;0.68;;
73911;SDS011;62248;49.958;8.448;2023-04-25T04:32:33;1.33;;;0.70;;
73911;SDS011;62248;49.958;8.448;2023-04-25T04:35:01;1.30;;;0.73;;
73911;SDS011;62248;49.958;8.448;2023-04-25T04:37:28;1.30;;;0.73;;
73911;SDS011;62248;49.958;8.448;2023-04-25T04:39:55;1.55;;;0.80;;
73911;SDS011;62248;49.958;8.448;2023-04-25T04:42:21;1.95;;;0.90;;
73911;SDS011;62248;49.958;8.448;2023-04-25T04:44:49;1.30;;;0.80;;
73911;SDS011;62248;49.958;8.448;2023-04-25T04:47:17;1.45;;;0.75;;
73911;SDS011;62248;49.958;8.448;2023-04-25T04:49:45;1.27;;;0.70;;
73911;SDS011;62248;49.958;8.448;2023-04-25T04:52:11;1.27;;;0.93;;
73911;SDS011;62248;49.958;8.448;2023-04-25T04:54:37;1.38;;;0.70;;
73911;SDS011;62248;49.958;8.448;2023-04-25T04:57:03;0.88;;;0.60;;
73911;SDS011;62248;49.958;8.448;2023-04-25T04:59:30;1.60;;;0.77;;
73911;SDS011;62248;49.958;8.448;2023-04-25T05:01:56;1.23;;;0.82;;
73911;SDS011;62248;49.958;8.448;2023-04-25T05:04:22;1.20;;;0.60;;
73911;SDS011;62248;49.958;8.448;2023-04-25T05:06:48;1.27;;;0.68;;
73911;SDS011;62248;49.958;8.448;2023-04-25T05:09:15;1.20;;;0.73;;
73911;SDS011;62248;49.958;8.448;2023-04-25T05:11:41;1.50;;;0.70;;
73911;SDS011;62248;49.958;8.448;2023-04-25T05:14:08;1.38;;;0.70;;
73911;SDS011;62248;49.958;8.448;2023-04-25T05:16:34;1.13;;;0.68;;
73911;SDS011;62248;49.958;8.448;2023-04-25T05:19:00;1.60;;;0.73;;
73911;SDS011;62248;49.958;8.448;2023-04-25T05:21:26;0.93;;;0.60;;
73911;SDS011;62248;49.958;8.448;2023-04-25T05:23:53;1.00;;;0.60;;
73911;SDS011;62248;49.958;8.448;2023-04-25T05:26:19;1.40;;;0.80;;
73911;SDS011;62248;49.958;8.448;2023-04-25T05:28:46;1.50;;;0.80;;
73911;SDS011;62248;49.958;8.448;2023-04-25T05:31:12;1.13;;;0.60;;
73911;SDS011;62248;49.958;8.448;2023-04-25T05:33:38;0.98;;;0.70;;
73911;SDS011;62248;49.958;8.448;2023-04-25T05:36:04;0.82;;;0.63;;
73911;SDS011;62248;49.958;8.448;2023-04-25T05:38:31;1.38;;;0.75;;
73911;SDS011;62248;49.958;8.448;2023-04-25T05:40:57;1.00;;;0.60;;
73911;SDS011;62248;49.958;8.448;2023-04-25T05:43:24;1.27;;;0.60;;
73911;SDS011;62248;49.958;8.448;2023-04-25T05:45:50;1.00;;;0.70;;
73911;SDS011;62248;49.958;8.448;2023-04-25T05:48:16;1.08;;;0.60;;
73911;SDS011;62248;49.958;8.448;2023-04-25T05:50:42;1.75;;;0.82;;
73911;SDS011;62248;49.958;8.448;2023-04-25T05:53:08;1.83;;;0.80;;
73911;SDS011;62248;49.958;8.448;2023-04-25T05:55:35;1.35;;;0.77;;
73911;SDS011;62248;49.958;8.448;2023-04-25T05:58:01;1.58;;;0.90;;
73911;SDS011;62248;49.958;8.448;2023-04-25T06:00:27;1.25;;;0.80;;
73911;SDS011;62248;49.958;8.448;2023-04-25T06:02:54;1.80;;;0.70;;
73911;SDS011;62248;49.958;8.448;2023-04-25T06:05:21;1.00;;;0.60;;
73911;SDS011;62248;49.958;8.448;2023-04-25T06:07:47;1.83;;;0.75;;
73911;SDS011;62248;49.958;8.448;2023-04-25T06:10:13;1.10;;;0.70;;
73911;SDS011;62248;49.958;8.448;2023-04-25T06:12:40;1.70;;;0.80;;
73911;SDS011;62248;49.958;8.448;2023-04-25T06:15:06;1.42;;;0.70;;
73911;SDS011;62248;49.958;8.448;2023-04-25T06:17:33;1.10;;;0.70;;
73911;SDS011;62248;49.958;8.448;2023-04-25T06:20:00;1.38;;;0.90;;
73911;SDS011;62248;49.958;8.448;2023-04-25T06:22:27;1.30;;;0.88;;
73911;SDS011;62248;49.958;8.448;2023-04-25T06:24:53;1.70;;;0.80;;
73911;SDS011;62248;49.958;8.448;2023-04-25T06:27:22;1.20;;;0.60;;
73911;SDS011;62248;49.958;8.448;2023-04-25T06:29:48;1.38;;;0.70;;
73911;SDS011;62248;49.958;8.448;2023-04-25T06:32:14;1.15;;;0.77;;
73911;SDS011;62248;49.958;8.448;2023-04-25T06:34:41;1.67;;;0.70;;
73911;SDS011;62248;49.958;8.448;2023-04-25T06:37:07;1.33;;;0.70;;
73911;SDS011;62248;49.958;8.448;2023-04-25T06:39:33;1.23;;;0.70;;
73911;SDS011;62248;49.958;8.448;2023-04-25T06:42:00;0.95;;;0.70;;
73911;SDS011;62248;49.958;8.448;2023-04-25T06:44:26;0.68;;;0.60;;
73911;SDS011;62248;49.958;8.448;2023-04-25T06:46:54;1.38;;;0.90;;
73911;SDS011;62248;49.958;8.448;2023-04-25T06:49:20;1.75;;;0.88;;
73911;SDS011;62248;49.958;8.448;2023-04-25T06:51:47;1.38;;;0.80;;
73911;SDS011;62248;49.958;8.448;2023-04-25T06:54:13;3.42;;;0.95;;
73911;SDS011;62248;49.958;8.448;2023-04-25T06:56:40;3.33;;;1.20;;
73911;SDS011;62248;49.958;8.448;2023-04-25T06:59:06;4.32;;;1.42;;
73911;SDS011;62248;49.958;8.448;2023-04-25T07:01:32;4.35;;;1.30;;
73911;SDS011;62248;49.958;8.448;2023-04-25T07:03:59;4.95;;;1.55;;
73911;SDS011;62248;49.958;8.448;2023-04-25T07:06:25;6.82;;;1.95;;
73911;SDS011;62248;49.958;8.448;2023-04-25T07:08:53;4.72;;;1.85;;
73911;SDS011;62248;49.958;8.448;2023-04-25T07:11:19;6.82;;;2.20;;
73911;SDS011;62248;49.958;8.448;2023-04-25T07:13:46;7.20;;;2.20;;
73911;SDS011;62248;49.958;8.448;2023-04-25T07:16:12;4.75;;;1.90;;
73911;SDS011;62248;49.958;8.448;2023-04-25T07:18:38;6.20;;;1.90;;
73911;SDS011;62248;49.958;8.448;2023-04-25T07:21:04;5.15;;;1.95;;
73911;SDS011;62248;49.958;8.448;2023-04-25T07:23:31;6.30;;;2.08;;
73911;SDS011;62248;49.958;8.448;2023-04-25T07:25:57;4.18;;;1.52;;
73911;SDS011;62248;49.958;8.448;2023-04-25T07:28:23;3.90;;;1.58;;
73911;SDS011;62248;49.958;8.448;2023-04-25T07:30:49;4.00;;;1.60;;
73911;SDS011;62248;49.958;8.448;2023-04-25T07:33:16;4.28;;;1.63;;
73911;SDS011;62248;49.958;8.448;2023-04-25T07:35:42;3.25;;;1.60;;
73911;SDS011;62248;49.958;8.448;2023-04-25T07:38:08;8.63;;;2.00;;
73911;SDS011;62248;49.958;8.448;2023-04-25T07:40:35;5.65;;;1.92;;
73911;SDS011;62248;49.958;8.448;2023-04-25T07:43:01;4.40;;;1.63;;
73911;SDS011;62248;49.958;8.448;2023-04-25T07:45:27;6.38;;;1.67;;
73911;SDS011;62248;49.958;8.448;2023-04-25T07:47:54;4.20;;;1.58;;
73911;SDS011;62248;49.958;8.448;2023-04-25T07:50:21;4.90;;;1.58;;
73911;SDS011;62248;49.958;8.448;2023-04-25T07:52:49;3.67;;;1.60;;
73911;SDS011;62248;49.958;8.448;2023-04-25T07:55:16;6.78;;;1.73;;
73911;SDS011;62248;49.958;8.448;2023-04-25T07:57:42;4.80;;;1.70;;
73911;SDS011;62248;49.958;8.448;2023-04-25T08:00:08;3.90;;;1.77;;
73911;SDS011;62248;49.958;8.448;2023-04-25T08:02:36;4.72;;;1.92;;
73911;SDS011;62248;49.958;8.448;2023-04-25T08:05:03;3.50;;;1.60;;
73911;SDS011;62248;49.958;8.448;2023-04-25T08:07:30;5.72;;;1.77;;
73911;SDS011;62248;49.958;8.448;2023-04-25T08:09:56;3.75;;;1.70;;
73911;SDS011;62248;49.958;8.448;2023-04-25T08:12:22;3.53;;;1.55;;
73911;SDS011;62248;49.958;8.448;2023-04-25T08:14:48;3.85;;;1.58;;
73911;SDS011;62248;49.958;8.448;2023-04-25T08:17:14;3.75;;;1.52;;
73911;SDS011;62248;49.958;8.448;2023-04-25T08:19:41;6.53;;;1.77;;
73911;SDS011;62248;49.958;8.448;2023-04-25T08:22:07;4.28;;;1.80;;
73911;SDS011;62248;49.958;8.448;2023-04-25T08:24:33;5.32;;;1.77;;
73911;SDS011;62248;49.958;8.448;2023-04-25T08:27:00;3.83;;;1.88;;
73911;SDS011;62248;49.958;8.448;2023-04-25T08:29:26;4.88;;;1.60;;
73911;SDS011;62248;49.958;8.448;2023-04-25T08:31:53;3.20;;;1.52;;
73911;SDS011;62248;49.958;8.448;2023-04-25T08:34:19;7.22;;;2.20;;
73911;SDS011;62248;49.958;8.448;2023-04-25T08:36:46;3.75;;;1.73;;
73911;SDS011;62248;49.958;8.448;2023-04-25T08:39:12;3.85;;;1.80;;
73911;SDS011;62248;49.958;8.448;2023-04-25T08:41:38;3.95;;;1.70;;
73911;SDS011;62248;49.958;8.448;2023-04-25T08:44:06;4.70;;;1.90;;
73911;SDS011;62248;49.958;8.448;2023-04-25T08:46:37;5.93;;;1.77;;
73911;SDS011;62248;49.958;8.448;2023-04-25T08:49:05;3.75;;;1.58;;
73911;SDS011;62248;49.958;8.448;2023-04-25T08:51:34;3.35;;;1.67;;
73911;SDS011;62248;49.958;8.448;2023-04-25T08:54:09;4.88;;;1.83;;
73911;SDS011;62248;49.958;8.448;2023-04-25T08:56:38;5.50;;;1.90;;
73911;SDS011;62248;49.958;8.448;2023-04-25T08:59:13;4.00;;;1.80;;
73911;SDS011;62248;49.958;8.448;2023-04-25T09:01:40;5.70;;;1.67;;
73911;SDS011;62248;49.958;8.448;2023-04-25T09:04:06;3.85;;;1.60;;
73911;SDS011;62248;49.958;8.448;2023-04-25T09:06:32;4.07;;;1.70;;
73911;SDS011;62248;49.958;8.448;2023-04-25T09:09:06;4.43;;;1.77;;
73911;SDS011;62248;49.958;8.448;2023-04-25T09:11:34;2.97;;;1.60;;
73911;SDS011;62248;49.958;8.448;2023-04-25T09:14:17;5.20;;;1.90;;
73911;SDS011;62248;49.958;8.448;2023-04-25T09:19:31;3.47;;;1.60;;
73911;SDS011;62248;49.958;8.448;2023-04-25T09:22:05;3.13;;;1.60;;
73911;SDS011;62248;49.958;8.448;2023-04-25T09:24:44;4.15;;;1.70;;
73911;SDS011;62248;49.958;8.448;2023-04-25T09:27:13;6.72;;;1.70;;
73911;SDS011;62248;49.958;8.448;2023-04-25T09:29:43;3.15;;;1.63;;
73911;SDS011;62248;49.958;8.448;2023-04-25T09:34:47;4.13;;;1.70;;
73911;SDS011;62248;49.958;8.448;2023-04-25T09:37:32;4.18;;;1.85;;
73911;SDS011;62248;49.958;8.448;2023-04-25T09:40:00;6.32;;;1.63;;
73911;SDS011;62248;49.958;8.448;2023-04-25T09:42:31;4.00;;;1.50;;
73911;SDS011;62248;49.958;8.448;2023-04-25T09:45:00;4.78;;;1.77;;
73911;SDS011;62248;49.958;8.448;2023-04-25T09:47:29;3.83;;;1.75;;
73911;SDS011;62248;49.958;8.448;2023-04-25T09:49:56;3.88;;;1.80;;
73911;SDS011;62248;49.958;8.448;2023-04-25T09:52:22;4.22;;;1.58;;
73911;SDS011;62248;49.958;8.448;2023-04-25T09:54:49;3.42;;;1.67;;
73911;SDS011;62248;49.958;8.448;2023-04-25T09:57:17;3.55;;;1.52;;
73911;SDS011;62248;49.958;8.448;2023-04-25T09:59:54;4.78;;;1.60;;
73911;SDS011;62248;49.958;8.448;2023-04-25T10:02:22;3.05;;;1.50;;
73911;SDS011;62248;49.958;8.448;2023-04-25T10:04:50;3.47;;;1.60;;
73911;SDS011;62248;49.958;8.448;2023-04-25T10:07:20;5.90;;;1.70;;
73911;SDS011;62248;49.958;8.448;2023-04-25T10:09:51;3.78;;;1.63;;
73911;SDS011;62248;49.958;8.448;2023-04-25T10:12:26;2.72;;;1.40;;
73911;SDS011;62248;49.958;8.448;2023-04-25T10:14:52;3.70;;;1.52;;
73911;SDS011;62248;49.958;8.448;2023-04-25T10:17:19;4.55;;;1.42;;
73911;SDS011;62248;49.958;8.448;2023-04-25T10:19:46;4.28;;;1.60;;
73911;SDS011;62248;49.958;8.448;2023-04-25T10:22:29;4.28;;;1.42;;
73911;SDS011;62248;49.958;8.448;2023-04-25T10:25:01;3.13;;;1.48;;
73911;SDS011;62248;49.958;8.448;2023-04-25T10:27:29;4.28;;;1.60;;
73911;SDS011;62248;49.958;8.448;2023-04-25T10:30:03;3.40;;;1.58;;
73911;SDS011;62248;49.958;8.448;2023-04-25T10:32:36;3.40;;;1.25;;
73911;SDS011;62248;49.958;8.448;2023-04-25T10:35:15;3.28;;;1.58;;
73911;SDS011;62248;49.958;8.448;2023-04-25T10:40:34;6.57;;;1.80;;
73911;SDS011;62248;49.958;8.448;2023-04-25T10:48:56;3.28;;;1.58;;
73911;SDS011;62248;49.958;8.448;2023-04-25T10:53:58;6.13;;;2.22;;
73911;SDS011;62248;49.958;8.448;2023-04-25T10:56:32;5.82;;;2.00;;
73911;SDS011;62248;49.958;8.448;2023-04-25T10:59:06;4.93;;;1.98;;
73911;SDS011;62248;49.958;8.448;2023-04-25T11:01:37;4.15;;;2.10;;
73911;SDS011;62248;49.958;8.448;2023-04-25T11:04:33;6.82;;;2.40;;
73911;SDS011;62248;49.958;8.448;2023-04-25T11:09:26;6.85;;;2.30;;
73911;SDS011;62248;49.958;8.448;2023-04-25T11:11:53;4.03;;;2.08;;
73911;SDS011;62248;49.958;8.448;2023-04-25T11:14:20;5.85;;;2.30;;
73911;SDS011;62248;49.958;8.448;2023-04-25T11:16:47;4.03;;;1.90;;
73911;SDS011;62248;49.958;8.448;2023-04-25T11:19:22;5.53;;;2.03;;
73911;SDS011;62248;49.958;8.448;2023-04-25T11:21:54;5.10;;;1.67;;
73911;SDS011;62248;49.958;8.448;2023-04-25T11:24:25;3.83;;;2.00;;
73911;SDS011;62248;49.958;8.448;2023-04-25T11:26:59;4.72;;;1.83;;
73911;SDS011;62248;49.958;8.448;2023-04-25T11:29:27;4.53;;;2.00;;
73911;SDS011;62248;49.958;8.448;2023-04-25T11:31:57;3.63;;;1.80;;
73911;SDS011;62248;49.958;8.448;2023-04-25T11:34:26;3.58;;;1.73;;
73911;SDS011;62248;49.958;8.448;2023-04-25T11:36:55;5.20;;;1.77;;
73911;SDS011;62248;49.958;8.448;2023-04-25T11:39:23;3.90;;;1.88;;
73911;SDS011;62248;49.958;8.448;2023-04-25T11:41:50;3.85;;;1.90;;
73911;SDS011;62248;49.958;8.448;2023-04-25T11:44:17;3.75;;;1.85;;
73911;SDS011;62248;49.958;8.448;2023-04-25T11:46:44;3.05;;;1.70;;
73911;SDS011;62248;49.958;8.448;2023-04-25T11:49:10;3.88;;;1.85;;
73911;SDS011;62248;49.958;8.448;2023-04-25T11:51:40;3.95;;;2.00;;
73911;SDS011;62248;49.958;8.448;2023-04-25T11:54:08;4.32;;;1.90;;
73911;SDS011;62248;49.958;8.448;2023-04-25T11:56:34;4.13;;;1.70;;
73911;SDS011;62248;49.958;8.448;2023-04-25T11:59:01;3.50;;;1.77;;
73911;SDS011;62248;49.958;8.448;2023-04-25T12:01:32;7.32;;;2.30;;
73911;SDS011;62248;49.958;8.448;2023-04-25T12:04:36;6.22;;;2.33;;
73911;SDS011;62248;49.958;8.448;2023-04-25T12:06:57;4.18;;;2.08;;
73911;SDS011;62248;49.958;8.448;2023-04-25T12:09:32;4.38;;;2.20;;
73911;SDS011;62248;49.958;8.448;2023-04-25T12:11:59;5.05;;;2.13;;
73911;SDS011;62248;49.958;8.448;2023-04-25T12:14:32;6.15;;;2.47;;
73911;SDS011;62248;49.958;8.448;2023-04-25T12:17:00;4.10;;;2.03;;
73911;SDS011;62248;49.958;8.448;2023-04-25T12:19:34;4.78;;;2.28;;
73911;SDS011;62248;49.958;8.448;2023-04-25T12:22:01;5.55;;;2.38;;
73911;SDS011;62248;49.958;8.448;2023-04-25T12:24:28;7.03;;;2.40;;
73911;SDS011;62248;49.958;8.448;2023-04-25T12:27:05;6.30;;;2.47;;
73911;SDS011;62248;49.958;8.448;2023-04-25T12:29:33;4.93;;;2.25;;
73911;SDS011;62248;49.958;8.448;2023-04-25T12:32:00;4.32;;;1.92;;
73911;SDS011;62248;49.958;8.448;2023-04-25T12:34:27;8.25;;;2.70;;
73911;SDS011;62248;49.958;8.448;2023-04-25T12:36:53;8.68;;;2.90;;
73911;SDS011;62248;49.958;8.448;2023-04-25T12:39:20;8.10;;;2.80;;
73911;SDS011;62248;49.958;8.448;2023-04-25T12:41:48;9.18;;;3.15;;
73911;SDS011;62248;49.958;8.448;2023-04-25T12:44:15;7.60;;;3.03;;
73911;SDS011;62248;49.958;8.448;2023-04-25T12:46:42;7.90;;;2.45;;
73911;SDS011;62248;49.958;8.448;2023-04-25T12:49:08;9.68;;;2.90;;
73911;SDS011;62248;49.958;8.448;2023-04-25T12:51:35;6.78;;;2.58;;
73911;SDS011;62248;49.958;8.448;2023-04-25T12:54:02;7.40;;;2.78;;
73911;SDS011;62248;49.958;8.448;2023-04-25T12:56:30;6.18;;;2.03;;
73911;SDS011;62248;49.958;8.448;2023-04-25T12:58:56;6.88;;;2.40;;
73911;SDS011;62248;49.958;8.448;2023-04-25T13:01:23;7.57;;;2.38;;
73911;SDS011;62248;49.958;8.448;2023-04-25T13:03:50;5.55;;;2.28;;
73911;SDS011;62248;49.958;8.448;2023-04-25T13:06:16;5.35;;;2.30;;
73911;SDS011;62248;49.958;8.448;2023-04-25T13:08:43;5.07;;;2.17;;
73911;SDS011;62248;49.958;8.448;2023-04-25T13:11:10;5.47;;;2.40;;
73911;SDS011;62248;49.958;8.448;2023-04-25T13:13:36;7.03;;;2.53;;
73911;SDS011;62248;49.958;8.448;2023-04-25T13:16:04;4.88;;;2.13;;
73911;SDS011;62248;49.958;8.448;2023-04-25T13:18:31;22.38;;;3.47;;
73911;SDS011;62248;49.958;8.448;2023-04-25T13:20:57;9.75;;;3.15;;
73911;SDS011;62248;49.958;8.448;2023-04-25T13:23:28;10.13;;;2.90;;
73911;SDS011;62248;49.958;8.448;2023-04-25T13:25:55;10.52;;;2.72;;
73911;SDS011;62248;49.958;8.448;2023-04-25T13:28:27;13.07;;;2.70;;
73911;SDS011;62248;49.958;8.448;2023-04-25T13:30:53;20.10;;;4.72;;
73911;SDS011;62248;49.958;8.448;2023-04-25T13:33:19;16.75;;;3.20;;
73911;SDS011;62248;49.958;8.448;2023-04-25T13:35:47;13.38;;;3.00;;
73911;SDS011;62248;49.958;8.448;2023-04-25T13:38:21;13.50;;;3.30;;
73911;SDS011;62248;49.958;8.448;2023-04-25T13:40:48;14.23;;;2.80;;
73911;SDS011;62248;49.958;8.448;2023-04-25T13:43:15;8.10;;;2.58;;
73911;SDS011;62248;49.958;8.448;2023-04-25T13:45:41;13.20;;;3.20;;
73911;SDS011;62248;49.958;8.448;2023-04-25T13:48:07;12.27;;;3.63;;
73911;SDS011;62248;49.958;8.448;2023-04-25T13:50:33;13.65;;;3.47;;
73911;SDS011;62248;49.958;8.448;2023-04-25T13:53:00;15.13;;;2.80;;
73911;SDS011;62248;49.958;8.448;2023-04-25T13:55:26;14.15;;;3.60;;
73911;SDS011;62248;49.958;8.448;2023-04-25T13:57:52;10.35;;;2.70;;
73911;SDS011;62248;49.958;8.448;2023-04-25T14:00:19;8.73;;;3.00;;
73911;SDS011;62248;49.958;8.448;2023-04-25T14:02:46;9.43;;;3.03;;
73911;SDS011;62248;49.958;8.448;2023-04-25T14:05:12;13.70;;;3.63;;
73911;SDS011;62248;49.958;8.448;2023-04-25T14:07:38;10.32;;;3.17;;
73911;SDS011;62248;49.958;8.448;2023-04-25T14:10:05;11.30;;;3.00;;
73911;SDS011;62248;49.958;8.448;2023-04-25T14:12:32;12.50;;;3.03;;
73911;SDS011;62248;49.958;8.448;2023-04-25T14:14:58;10.90;;;3.00;;
73911;SDS011;62248;49.958;8.448;2023-04-25T14:17:25;14.27;;;3.10;;
73911;SDS011;62248;49.958;8.448;2023-04-25T14:19:51;15.02;;;3.20;;
73911;SDS011;62248;49.958;8.448;2023-04-25T14:22:17;12.52;;;3.47;;
73911;SDS011;62248;49.958;8.448;2023-04-25T14:24:44;10.85;;;3.42;;
73911;SDS011;62248;49.958;8.448;2023-04-25T14:27:10;9.40;;;2.80;;
73911;SDS011;62248;49.958;8.448;2023-04-25T14:29:37;13.25;;;3.28;;
73911;SDS011;62248;49.958;8.448;2023-04-25T14:32:03;10.20;;;3.35;;
73911;SDS011;62248;49.958;8.448;2023-04-25T14:34:30;10.45;;;2.92;;
73911;SDS011;62248;49.958;8.448;2023-04-25T14:36:57;14.75;;;2.88;;
73911;SDS011;62248;49.958;8.448;2023-04-25T14:39:23;13.45;;;3.20;;
73911;SDS011;62248;49.958;8.448;2023-04-25T14:41:49;9.02;;;3.17;;
73911;SDS011;62248;49.958;8.448;2023-04-25T14:44:15;11.25;;;3.40;;
73911;SDS011;62248;49.958;8.448;2023-04-25T14:46:41;46.05;;;5.35;;
73911;SDS011;62248;49.958;8.448;2023-04-25T14:49:08;11.60;;;3.33;;
73911;SDS011;62248;49.958;8.448;2023-04-25T14:51:34;15.00;;;3.00;;
73911;SDS011;62248;49.958;8.448;2023-04-25T14:54:00;10.73;;;3.45;;
73911;SDS011;62248;49.958;8.448;2023-04-25T14:56:27;12.15;;;2.70;;
73911;SDS011;62248;49.958;8.448;2023-04-25T14:58:53;8.52;;;2.63;;
73911;SDS011;62248;49.958;8.448;2023-04-25T15:01:23;15.77;;;2.90;;
73911;SDS011;62248;49.958;8.448;2023-04-25T15:03:55;9.60;;;3.28;;
73911;SDS011;62248;49.958;8.448;2023-04-25T15:06:22;11.98;;;3.15;;